Overview Statistics Trail Chart Weather Telemetry Raw packets
 

This is the latest recevied weather packets stored in our database for station/object IZ7EXI-13. If no packets are shown the sender has not sent any weather packets the latest 10 day(s).

<< 2 3 4 5 6 7 8 >>
Time Temp. Humidity Pressure Rain* Wind** Luminosity Snow
1788598444 30.56° C 47% 1020 hPa - - - -
1788597544 31.11° C 46% 1020 hPa - - - -
1788596644 32.22° C 29% 1019.9 hPa - - - -
1788595744 32.22° C 29% 1019.8 hPa - - - -
1788594843 32.22° C 31% 1019.7 hPa - - - -
1788593943 31.11° C 33% 1019.7 hPa - - - -
1788593043 30° C 37% 1019.7 hPa - - - -
1788592143 28.89° C 38% 1019.8 hPa - - - -
1788591243 28.33° C 40% 1019.8 hPa - - - -
1788590342 26.67° C 42% 1019.7 hPa - - - -
1788589442 25.56° C 43% 1019.8 hPa - - - -
1788588542 25° C 43% 1019.8 hPa - - - -
1788587642 24.44° C 43% 1019.8 hPa - - - -
1788586741 23.89° C 43% 1019.8 hPa - - - -
1788585841 23.89° C 43% 1019.7 hPa - - - -
1788584941 23.89° C 42% 1019.6 hPa - - - -
1788584041 23.33° C 42% 1019.7 hPa - - - -
1788583141 22.78° C 42% 1019.8 hPa - - - -
1788582240 22.78° C 42% 1019.7 hPa - - - -
1788581340 22.78° C 41% 1019.7 hPa - - - -
1788580440 22.78° C 40% 1019.7 hPa - - - -
1788579540 22.78° C 40% 1019.7 hPa - - - -
1788578639 23.33° C 38% 1019.6 hPa - - - -
1788577739 22.78° C 39% 1019.8 hPa - - - -
1788576839 22.78° C 38% 1019.8 hPa - - - -

* Rain since midnight (hover to see other rain measurements)
** Current wind speed in m/s (hover to see current wind gust speed)